• Join FlightAware (Why Join?)
  • Login
  • US Flag 
06:24AM EDT


 

Airport Tracker/Info


-or-


 

Live Flight TrackerFlight Track Log ✈ SWA1903 ✈ 16-May-2013 ✈ KDTW - KPHX

Flight Track Log - Related Links

Times and Time Zones

All times are in EDT time to prevent confusion due to time zone crossing. See the SWA1903 flight status page for this flight to view local times or setup timezone preferences in your user account.

Time Position Orientation Groundspeed Altitude Reporting Facility
EDT Latitude Longitude Course Direction KTS MPH feet Rate Location/Type
09:53AM 42.2017 -83.3583 225° Southwest 169 194 1,100  Level Cleveland Center
09:53AM 42.1778 -83.3908 225° Southwest 197 227 2,500 2,160 Climbing Cleveland Center
09:54AM 42.1328 -83.4447 222° Southwest 223 257 4,900 2,340 Climbing Cleveland Center
09:55AM 42.1350 -83.5150 272° West 222 255 7,000 2,520 Climbing Cleveland Center
09:57AM 42.1747 -83.6008 302° West 265 305 10,100 2,460 Climbing Cleveland Center
09:57AM 42.1942 -83.6522 297° West 263 303 11,100 2,280 Climbing Cleveland Center
09:58AM 42.2333 -83.7439 300° West 287 330 13,700 2,580 Climbing Cleveland Center
09:59AM 42.2783 -83.8528 299° West 311 358 16,300 2,580 Climbing Cleveland Center
10:00AM 42.3144 -83.9725 292° West 334 384 18,900 2,460 Climbing Cleveland Center
10:01AM 42.3436 -84.1061 286° West 355 409 21,300 2,280 Climbing Cleveland Center
10:02AM 42.3728 -84.2400 286° West 369 425 23,500 2,040 Climbing Cleveland Center
10:04AM 42.4308 -84.5008 287° West 392 451 27,200 1,920 Climbing Chicago Center
10:05AM 42.4386 -84.6508 274° West 400 460 29,100 1,800 Climbing Chicago Center
10:06AM 42.4425 -84.7992 272° West 397 457 31,000 1,680 Climbing Chicago Center
10:07AM 42.4467 -84.9472 272° West 396 456 32,600 1,560 Climbing Chicago Center
10:08AM 42.4506 -85.1231 272° West 391 450 34,300 1,440 Climbing Chicago Center
10:09AM 42.4528 -85.2717 271° West 394 453 35,600 1,200 Climbing Chicago Center
10:10AM 42.4553 -85.4189 271° West 392 451 36,900 1,140 Climbing Chicago Center
10:11AM 42.4583 -85.5642 272° West 387 445 38,000 480 Climbing Chicago Center
10:12AM 42.4606 -85.7089 271° West 385 443 38,000  Level Chicago Center
10:13AM 42.4614 -85.8569 270° West 391 450 38,000  Level Chicago Center
10:14AM 42.4636 -86.0033 271° West 390 449 38,000  Level Chicago Center
10:15AM 42.4567 -86.1792 267° West 388 447 38,000  Level Chicago Center
10:16AM 42.4372 -86.3233 260° West 389 448 38,000  Level Chicago Center
10:17AM 42.4186 -86.4692 260° West 391 450 38,000  Level Chicago Center
10:18AM 42.4014 -86.6142 261° West 390 449 38,000  Level Chicago Center
10:19AM 42.3850 -86.7519 261° West 385 443 38,000  Level Chicago Center
10:20AM 42.3631 -86.9250 260° West 390 449 38,000  Level Chicago Center
10:21AM 42.3433 -87.0661 259° West 389 448 38,000  Level Chicago Center
10:22AM 42.3236 -87.2072 259° West 387 445 38,000  Level Chicago Center
10:24AM 42.3033 -87.3506 259° West 393 452 38,000  Level Chicago Center
10:25AM 42.2667 -87.4894 250° West 398 458 38,000  Level Chicago Center
10:26AM 42.2308 -87.6286 251° West 397 457 38,000  Level Chicago Center
10:27AM 42.1881 -87.7953 251° West 397 457 38,000  Level Chicago Center
10:28AM 42.1522 -87.9344 251° West 398 458 38,000  Level Chicago Center
10:29AM 42.1161 -88.0764 251° West 404 465 38,000  Level Chicago Center
10:30AM 42.0719 -88.2447 251° West 404 465 38,000  Level Chicago Center
10:31AM 42.0367 -88.3772 250° West 398 458 38,000  Level Chicago Center
10:32AM 41.9981 -88.5231 250° West 401 461 38,000  Level Chicago Center
10:33AM 41.9619 -88.6631 251° West 402 463 38,000  Level Chicago Center
10:34AM 41.9167 -88.8283 250° West 399 459 38,000  Level Chicago Center
10:35AM 41.8806 -88.9661 251° West 396 456 38,000  Level Chicago Center
10:36AM 41.8433 -89.1036 250° West 398 458 38,000  Level Chicago Center
10:37AM 41.8056 -89.2453 250° West 404 465 38,000  Level Chicago Center
10:38AM 41.7678 -89.3842 250° West 401 461 38,000  Level Chicago Center
10:39AM 41.7208 -89.5514 249° West 402 463 38,000  Level Chicago Center
10:40AM 41.6844 -89.6869 250° West 405 466 38,000  Level Chicago Center
10:41AM 41.6464 -89.8269 250° West 404 465 38,000  Level Chicago Center
10:42AM 41.6067 -89.9675 249° West 406 467 38,000  Level Chicago Center
10:43AM 41.5675 -90.1081 250° West 406 467 38,000  Level Chicago Center
10:44AM 41.5211 -90.2744 250° West 403 464 38,000  Level Chicago Center
10:45AM 41.4797 -90.4172 249° West 410 472 38,000  Level Chicago Center
10:46AM 41.4403 -90.5567 249° West 408 470 38,000  Level Chicago Center
10:47AM 41.4006 -90.6972 249° West 407 468 38,000  Level Chicago Center
10:48AM 41.3589 -90.8369 248° West 407 468 38,000  Level Chicago Center
10:49AM 41.3100 -91.0058 249° West 410 472 38,000  Level Chicago Center
10:50AM 41.2686 -91.1461 249° West 409 471 38,000  Level Chicago Center
10:51AM 41.2272 -91.2883 249° West 412 474 38,000  Level Chicago Center
10:52AM 41.1850 -91.4303 248° West 416 479 38,000  Level Chicago Center
10:54AM 41.1425 -91.5739 249° West 419 482 38,000  Level Chicago Center
10:55AM 41.0939 -91.7400 249° West 424 488 38,000  Level Chicago Center
10:56AM 41.0500 -91.8831 248° West 424 488 38,000  Level Chicago Center
10:57AM 41.0056 -92.0256 248° West 424 488 38,000  Level Chicago Center
10:58AM 40.9631 -92.1694 249° West 424 488 38,000  Level Chicago Center
10:59AM 40.9114 -92.3386 248° West 420 483 38,000  Level Chicago Center
11:00AM 40.8675 -92.4806 248° West 421 484 38,000  Level Chicago Center
11:01AM 40.8239 -92.6228 248° West 423 487 38,000  Level Chicago Center
11:02AM 40.7803 -92.7642 248° West 423 487 38,000  Level Chicago Center
11:03AM 40.7356 -92.9053 247° West 423 487 38,000  Level Minneapolis Center
11:04AM 40.6561 -93.1600 248° West 425 489 38,000  Level Chicago Center
11:05AM 40.6106 -93.3028 247° West 429 494 38,000  Level Chicago Center
11:06AM 40.5942 -93.3586 249° West 427 491 38,000  Level Kansas City Center
11:07AM 40.5639 -93.4444 245° Southwest 427 491 38,000  Level Minneapolis Center
11:08AM 40.5189 -93.5869 247° West 429 494 38,000  Level Minneapolis Center
11:09AM 40.4619 -93.7581 246° West 430 495 38,000  Level Minneapolis Center
11:10AM 40.4164 -93.8994 247° West 427 491 38,000  Level Minneapolis Center
11:11AM 40.3706 -94.0419 247° West 427 491 38,000  Level Minneapolis Center
11:11AM 40.3553 -94.0978 250° West 429 494 38,000  Level Kansas City Center
11:12AM 40.3072 -94.2447 247° West 424 488 38,000  Level Kansas City Center
11:13AM 40.2536 -94.4036 246° West 425 489 38,000  Level Kansas City Center
11:14AM 40.2219 -94.4944 245° Southwest 428 493 38,000  Level Minneapolis Center
11:15AM 40.1753 -94.6339 246° West 432 497 38,000  Level Minneapolis Center
11:16AM 40.1281 -94.7789 247° West 432 497 38,000  Level Minneapolis Center
11:16AM 40.1072 -94.8419 247° West 437 503 38,000  Level Kansas City Center
11:17AM 40.0528 -95.0036 246° West 436 502 38,000  Level Kansas City Center
11:18AM 40.0058 -95.1433 246° West 439 505 38,000  Level Kansas City Center
11:19AM 39.9511 -95.3042 246° West 438 504 38,000  Level Kansas City Center
11:20AM 39.9197 -95.3917 245° Southwest 441 507 38,000  Level Minneapolis Center
11:21AM 39.8706 -95.5356 246° West 438 504 38,000  Level Minneapolis Center
11:21AM 39.8489 -95.6033 247° West 437 503 38,000  Level Kansas City Center
11:22AM 39.8014 -95.7411 246° West 438 504 38,000  Level Kansas City Center
11:23AM 39.7439 -95.9056 246° West 447 514 38,000  Level Kansas City Center
11:25AM 39.6958 -96.0419 245° Southwest 437 503 38,000  Level Kansas City Center
11:26AM 39.6383 -96.2028 245° Southwest 441 507 38,000  Level Kansas City Center
11:27AM 39.5911 -96.3381 246° West 435 501 38,000  Level Kansas City Center
11:28AM 39.5333 -96.4983 245° Southwest 438 504 38,000  Level Kansas City Center
11:29AM 39.4850 -96.6344 245° Southwest 436 502 38,000  Level Kansas City Center
11:30AM 39.4283 -96.7928 245° Southwest 436 502 38,000  Level Kansas City Center
11:31AM 39.3800 -96.9275 245° Southwest 434 499 38,000  Level Kansas City Center
11:32AM 39.3297 -97.0617 244° Southwest 433 498 38,000  Level Kansas City Center
11:33AM 39.2736 -97.2203 245° Southwest 433 498 38,000  Level Kansas City Center
11:34AM 39.2256 -97.3561 245° Southwest 435 501 38,000  Level Kansas City Center
11:35AM 39.1675 -97.5131 245° Southwest 436 502 38,000  Level Kansas City Center
11:36AM 39.1175 -97.6481 245° Southwest 436 502 38,000  Level Kansas City Center
11:37AM 39.0594 -97.8061 245° Southwest 437 503 38,000  Level Kansas City Center
11:38AM 39.0078 -97.9439 244° Southwest 441 507 38,000  Level Kansas City Center
11:39AM 38.9558 -98.0828 244° Southwest 437 503 38,000  Level Kansas City Center
11:40AM 38.9042 -98.2186 244° Southwest 430 495 38,000  Level Kansas City Center
11:41AM 38.8422 -98.3836 244° Southwest 429 494 38,000  Level Kansas City Center
11:42AM 38.7906 -98.5203 244° Southwest 428 493 38,000  Level Kansas City Center
11:43AM 38.7381 -98.6558 244° Southwest 427 491 38,000  Level Kansas City Center
11:44AM 38.6869 -98.7919 244° Southwest 425 489 38,000  Level Kansas City Center
11:45AM 38.6333 -98.9278 243° Southwest 429 494 38,000  Level Kansas City Center
11:46AM 38.5817 -99.0631 244° Southwest 426 490 38,000  Level Kansas City Center
11:47AM 38.5200 -99.2222 244° Southwest 421 484 38,000  Level Kansas City Center
11:48AM 38.4697 -99.3569 245° Southwest 421 484 38,000  Level Kansas City Center
11:49AM 38.4303 -99.4956 250° West 418 481 38,000  Level Kansas City Center
11:50AM 38.3828 -99.6536 249° West 420 483 38,000  Level Kansas City Center
11:51AM 38.3417 -99.7864 248° West 421 484 38,000  Level Kansas City Center
11:52AM 38.2939 -99.9406 248° West 421 484 38,000  Level Kansas City Center
11:53AM 38.2522 -100.0722 248° West 420 483 38,000  Level Kansas City Center
11:54AM 38.2117 -100.2053 249° West 421 484 38,000  Level Kansas City Center
11:56AM 38.1650 -100.3592 249° West 421 484 38,000  Level Kansas City Center
11:58AM 38.0744 -100.6428 248° West 420 483 38,000  Level Kansas City Center
11:59AM 38.0333 -100.7739 248° West 421 484 38,000  Level Kansas City Center
12:00PM 37.9842 -100.9256 248° West 420 483 38,000  Level Kansas City Center
12:01PM 37.9356 -101.0781 248° West 422 486 38,000  Level Kansas City Center
12:03PM 37.8535 -101.2427 248° West  Level FlightAware Approximate
12:03PM 37.8450 -101.3597 248° West 420 483 38,000  Level Kansas City Center
12:04PM 37.8028 -101.4897 248° West 420 483 38,000  Level Kansas City Center
12:05PM 37.7528 -101.6408 247° West 418 481 38,000  Level Kansas City Center
12:06PM 37.7111 -101.7689 248° West 415 478 38,000  Level Kansas City Center
12:07PM 37.6683 -101.8981 247° West 416 479 38,000  Level Kansas City Center
12:08PM 37.6189 -102.0481 247° West 415 478 38,000  Level Kansas City Center
12:08PM 37.5981 -102.1128 248° West 414 476 38,000  Level Albuquerque Center
12:09PM 37.5556 -102.2400 247° West 412 474 38,000  Level Albuquerque Center
12:10PM 37.5053 -102.3906 247° West 415 478 38,000  Level Albuquerque Center
12:11PM 37.4597 -102.5256 247° West 418 481 38,000  Level Albuquerque Center
12:13PM 37.4175 -102.6556 248° West 418 481 38,000  Level Albuquerque Center
12:14PM 37.3650 -102.8067 246° West 421 484 38,000  Level Albuquerque Center
12:15PM 37.3208 -102.9350 247° West 419 482 38,000  Level Albuquerque Center
12:16PM 37.2697 -103.0853 247° West 418 481 38,000  Level Albuquerque Center
12:17PM 37.2264 -103.2144 247° West 418 481 38,000  Level Albuquerque Center
12:18PM 37.1731 -103.3653 246° West 421 484 38,000  Level Albuquerque Center
12:19PM 37.1286 -103.4950 247° West 422 486 38,000  Level Albuquerque Center
12:20PM 37.0767 -103.6433 246° West 417 480 38,000  Level Albuquerque Center
12:21PM 37.0308 -103.7719 246° West 418 481 38,000  Level Albuquerque Center
12:22PM 36.9858 -103.8994 246° West 418 481 38,000  Level Albuquerque Center
12:23PM 36.9331 -104.0492 246° West 418 481 38,000  Level Albuquerque Center
12:24PM 36.8883 -104.1775 246° West 419 482 38,000  Level Albuquerque Center
12:25PM 36.8336 -104.3269 245° Southwest 422 486 38,000  Level Albuquerque Center
12:26PM 36.7878 -104.4556 246° West 423 487 38,000  Level Albuquerque Center
12:27PM 36.7350 -104.6056 246° West 423 487 38,000  Level Albuquerque Center
12:28PM 36.6842 -104.7389 245° Southwest 419 482 38,000  Level Albuquerque Center
12:29PM 36.6361 -104.8728 246° West 421 484 38,000  Level Albuquerque Center
12:30PM 36.5878 -105.0058 246° West 420 483 38,000  Level Albuquerque Center
12:31PM 36.5378 -105.1400 245° Southwest 422 486 38,000  Level Albuquerque Center
12:32PM 36.4861 -105.2831 246° West 423 487 38,000  Level Albuquerque Center
12:33PM 36.4392 -105.4092 245° Southwest 421 484 38,000  Level Albuquerque Center
12:34PM 36.3833 -105.5592 245° Southwest 426 490 38,000  Level Albuquerque Center
12:35PM 36.3342 -105.6892 245° Southwest 421 484 38,000  Level Albuquerque Center
12:36PM 36.2850 -105.8206 245° Southwest 421 484 38,000  Level Albuquerque Center
12:37PM 36.2375 -105.9539 246° West 423 487 38,000  Level Albuquerque Center
12:38PM 36.1867 -106.0828 244° Southwest 420 483 38,000  Level Albuquerque Center
12:39PM 36.1275 -106.2397 245° Southwest 420 483 38,000  Level Albuquerque Center
12:40PM 36.0772 -106.3733 245° Southwest 427 491 38,000  Level Albuquerque Center
12:41PM 36.0256 -106.5069 244° Southwest 430 495 38,000  Level Albuquerque Center
12:43PM 35.9736 -106.6408 244° Southwest 434 499 38,000  Level Albuquerque Center
12:44PM 35.9222 -106.7742 245° Southwest 433 498 38,000  Level Albuquerque Center
12:45PM 35.8636 -106.9292 245° Southwest 434 499 38,000  Level Albuquerque Center
12:46PM 35.8119 -107.0592 244° Southwest 437 503 38,000  Level Albuquerque Center
12:47PM 35.7525 -107.2122 244° Southwest 442 509 38,000  Level Albuquerque Center
12:48PM 35.7003 -107.3442 244° Southwest 445 512 38,000  Level Albuquerque Center
12:49PM 35.6400 -107.4961 244° Southwest 444 511 38,000  Level Albuquerque Center
12:50PM 35.5883 -107.6269 244° Southwest 444 511 38,000  Level Albuquerque Center
12:51PM 35.5272 -107.7808 244° Southwest 447 514 38,000  Level Albuquerque Center
12:52PM 35.4750 -107.9100 244° Southwest 444 511 38,000  Level Albuquerque Center
12:53PM 35.4431 -108.0450 254° West 434 499 38,000  Level Albuquerque Center
12:54PM 35.4481 -108.2111 272° West 433 498 38,000  Level Albuquerque Center
12:55PM 35.4550 -108.3503 274° West 428 493 38,000  Level Albuquerque Center
12:56PM 35.4581 -108.5094 271° West 423 487 38,000  Level Albuquerque Center
12:57PM 35.3972 -108.6300 238° Southwest 428 493 38,000 -360 Level Albuquerque Center
12:58PM 35.3225 -108.7672 236° Southwest 431 496 37,300 -780 Descending Albuquerque Center
12:59PM 35.2578 -108.8839 236° Southwest 431 496 36,400 -660 Descending Albuquerque Center
01:00PM 35.1853 -109.0153 236° Southwest 421 484 36,000 -240 Descending Albuquerque Center
01:01PM 35.1228 -109.1264 236° Southwest 415 478 36,000  Level Albuquerque Center
01:02PM 35.0494 -109.2575 236° Southwest 417 480 36,000  Level Albuquerque Center
01:03PM 34.9869 -109.3694 236° Southwest 417 480 36,000  Level Albuquerque Center
01:04PM 34.9228 -109.4803 235° Southwest 416 479 36,000  Level Albuquerque Center
01:05PM 34.8481 -109.6081 235° Southwest 414 476 36,000  Level Albuquerque Center
01:06PM 34.7853 -109.7200 236° Southwest 417 480 36,000  Level Albuquerque Center
01:07PM 34.7111 -109.8508 235° Southwest 419 482 36,000  Level Albuquerque Center
01:08PM 34.6653 -109.9753 246° West 420 483 36,000  Level Albuquerque Center
01:09PM 34.6111 -110.1192 245° Southwest 421 484 36,000  Level Albuquerque Center
01:10PM 34.5681 -110.2431 247° West 419 482 36,000 -960 Level Albuquerque Center
01:11PM 34.5131 -110.3794 244° Southwest 404 465 34,100 -1,500 Descending Albuquerque Center
01:12PM 34.4714 -110.4992 247° West 420 483 33,000 -1,920 Descending Albuquerque Center
01:14PM 34.4185 -110.6232 243° Southwest  Level FlightAware Approximate
01:15PM 34.3617 -110.7756 243° Southwest 413 475 28,300  Level Albuquerque Center
01:16PM 34.2922 -110.8756 230° Southwest 393 452 26,500 -1,800 Descending Albuquerque Center
01:17PM 34.2203 -110.9686 227° Southwest 382 440 24,600 -1,860 Descending Albuquerque Center
01:18PM 34.1525 -111.0578 227° Southwest 371 427 22,700 -1,860 Descending Albuquerque Center
01:19PM 34.0853 -111.1431 226° Southwest 356 410 20,800 -1,800 Descending Albuquerque Center
01:20PM 34.0211 -111.2267 227° Southwest 345 397 19,000 -1,800 Descending Albuquerque Center
01:21PM 33.9594 -111.3067 227° Southwest 331 381 17,200 -1,680 Descending Albuquerque Center
01:22PM 33.8861 -111.3978 226° Southwest 315 362 15,600 -1,440 Descending Albuquerque Center
01:23PM 33.8433 -111.4767 237° Southwest 282 325 14,300 -1,380 Descending Albuquerque Center
01:24PM 33.8019 -111.5553 238° Southwest 277 319 12,800 -1,500 Descending Albuquerque Center
01:25PM 33.7617 -111.6328 238° Southwest 271 312 11,300 -1,380 Descending Albuquerque Center
01:26PM 33.7194 -111.7108 237° Southwest 276 318 10,000 -1,080 Descending Albuquerque Center
01:27PM 33.6781 -111.7878 237° Southwest 274 315 9,100 -480 Descending Albuquerque Center
01:28PM 33.6364 -111.8633 236° Southwest 270 311 9,100 -60 Level Albuquerque Center
01:29PM 33.5897 -111.9517 238° Southwest 255 293 9,000 -600 Descending Albuquerque Center
01:30PM 33.5547 -112.0178 238° Southwest 233 268 7,900 -1,020 Descending Albuquerque Center
01:31PM 33.5258 -112.0856 243° Southwest 234 269 7,000 -600 Descending Albuquerque Center
01:32PM 33.5256 -112.1500 270° West 194 223 6,700 -960 Descending Albuquerque Center
01:33PM 33.4914 -112.1761 213° Southwest 167 192 5,100 -1,500 Descending Albuquerque Center
01:34PM 33.4453 -112.1669 171° South 191 220 3,600 -1,380 Descending Albuquerque Center
01:35PM 33.4408 -112.1003 95° East 172 198 2,300 -1,020 Descending Albuquerque Center
01:36PM 33.4411 -112.0531 90° East 147 169 1,600 -600 Descending Albuquerque Center
01:37PM 33.4411 -112.0119 90° East 142 163 1,100 -480 Descending Albuquerque Center